createdAt,value
2023-03-29T00:02:20.076Z,99.90
2023-03-29T00:04:47.301Z,99.90
2023-03-29T00:07:14.688Z,99.90
2023-03-29T00:09:42.559Z,99.90
2023-03-29T00:12:11.694Z,99.90
2023-03-29T00:14:38.734Z,99.90
2023-03-29T00:17:06.536Z,99.90
2023-03-29T00:19:36.645Z,99.90
2023-03-29T00:22:07.634Z,99.90
2023-03-29T00:24:34.882Z,99.90
2023-03-29T00:27:02.188Z,99.90
2023-03-29T00:29:29.352Z,99.90
2023-03-29T00:31:57.392Z,99.90
2023-03-29T00:34:26.380Z,99.90
2023-03-29T00:36:58.104Z,99.90
2023-03-29T00:39:26.569Z,99.90
2023-03-29T00:41:57.009Z,99.90
2023-03-29T00:44:55.101Z,99.90
2023-03-29T00:47:28.810Z,99.90
2023-03-29T00:50:01.758Z,99.90
2023-03-29T00:52:32.119Z,99.90
2023-03-29T00:55:03.624Z,99.90
2023-03-29T00:57:33.274Z,99.90
2023-03-29T01:00:04.953Z,99.90
2023-03-29T01:02:35.078Z,99.90
2023-03-29T01:05:10.806Z,99.90
2023-03-29T01:07:48.205Z,99.90
2023-03-29T01:10:25.115Z,99.90
2023-03-29T01:12:59.373Z,99.90
2023-03-29T01:15:28.226Z,99.90
2023-03-29T01:17:58.230Z,99.90
2023-03-29T01:20:31.154Z,99.90
2023-03-29T01:23:15.928Z,99.90
2023-03-29T01:26:12.965Z,99.90
2023-03-29T01:28:52.984Z,99.90
2023-03-29T01:31:34.352Z,99.90
2023-03-29T01:34:09.923Z,99.90
2023-03-29T01:36:49.632Z,99.90
2023-03-29T01:39:18.257Z,99.90
2023-03-29T01:42:14.813Z,99.90
2023-03-29T01:45:10.955Z,99.90
2023-03-29T01:47:49.458Z,99.90
2023-03-29T01:50:44.610Z,99.90
2023-03-29T01:53:24.758Z,99.90
2023-03-29T01:55:55.561Z,99.90
2023-03-29T01:58:33.697Z,99.90
2023-03-29T02:01:05.838Z,99.90
2023-03-29T02:03:34.815Z,99.90
2023-03-29T02:06:04.937Z,99.90
2023-03-29T02:08:32.198Z,99.90
2023-03-29T02:10:59.642Z,99.90
2023-03-29T02:13:27.339Z,99.90
2023-03-29T02:15:54.892Z,99.90
2023-03-29T02:18:22.178Z,99.90
2023-03-29T02:20:51.680Z,99.90
2023-03-29T02:23:27.365Z,99.90
2023-03-29T02:25:56.983Z,99.90
2023-03-29T02:28:27.131Z,99.90
2023-03-29T02:31:07.988Z,99.90
2023-03-29T02:34:01.321Z,99.90
2023-03-29T02:37:03.826Z,99.90
2023-03-29T02:39:33.738Z,99.90
2023-03-29T02:42:03.045Z,99.90
2023-03-29T02:44:33.216Z,99.90
2023-03-29T02:47:07.822Z,99.90
2023-03-29T02:49:35.065Z,99.90
2023-03-29T02:52:11.675Z,99.90
2023-03-29T02:54:43.177Z,99.90
2023-03-29T02:57:11.289Z,99.90
2023-03-29T02:59:44.081Z,99.90
2023-03-29T03:02:11.860Z,99.90
2023-03-29T03:04:39.947Z,99.90
2023-03-29T03:07:07.463Z,99.90
2023-03-29T03:09:35.506Z,99.90
2023-03-29T03:12:03.066Z,99.90
2023-03-29T03:14:30.419Z,99.90
2023-03-29T03:17:00.699Z,99.90
2023-03-29T03:19:29.674Z,99.90
2023-03-29T03:21:57.087Z,99.90
2023-03-29T03:24:24.154Z,99.90
2023-03-29T03:26:51.492Z,99.90
2023-03-29T03:29:19.678Z,99.90
2023-03-29T03:32:24.474Z,99.90
2023-03-29T03:35:18.085Z,99.90
2023-03-29T03:37:46.341Z,99.90
2023-03-29T03:40:13.773Z,99.90
2023-03-29T03:42:41.897Z,99.90
2023-03-29T03:45:10.729Z,99.90
2023-03-29T03:48:07.257Z,99.90
2023-03-29T03:50:59.097Z,99.90
2023-03-29T03:53:32.311Z,99.90
2023-03-29T03:56:15.199Z,99.90
2023-03-29T03:59:07.311Z,99.90
2023-03-29T04:02:03.765Z,99.90
2023-03-29T04:04:32.764Z,99.90
2023-03-29T04:07:17.959Z,99.90
2023-03-29T04:09:57.476Z,99.90
2023-03-29T04:12:43.051Z,99.90
2023-03-29T04:15:12.187Z,99.90
2023-03-29T04:17:44.991Z,99.90
2023-03-29T04:20:24.749Z,99.90
2023-03-29T04:22:52.233Z,99.90
2023-03-29T04:25:21.547Z,99.90
2023-03-29T04:27:50.958Z,99.90
2023-03-29T04:30:38.794Z,99.90
2023-03-29T04:33:12.193Z,99.90
2023-03-29T04:35:42.736Z,99.90
2023-03-29T04:38:14.857Z,99.90
2023-03-29T04:40:44.235Z,99.90
2023-03-29T04:43:31.694Z,99.90
2023-03-29T04:46:10.955Z,99.90
2023-03-29T04:48:58.765Z,99.90
2023-03-29T04:51:47.701Z,99.90
2023-03-29T04:54:17.560Z,99.90
2023-03-29T04:57:07.757Z,99.90
2023-03-29T04:59:41.426Z,99.90
2023-03-29T05:02:20.007Z,99.90
2023-03-29T05:04:50.442Z,99.90
2023-03-29T05:07:19.581Z,99.90
2023-03-29T05:09:47.601Z,99.90
2023-03-29T05:12:15.410Z,99.90
2023-03-29T05:15:00.453Z,99.90
2023-03-29T05:17:29.924Z,99.90
2023-03-29T05:20:13.199Z,99.90
2023-03-29T05:22:43.563Z,99.90
2023-03-29T05:25:17.454Z,99.90
2023-03-29T05:27:46.009Z,99.90
2023-03-29T05:30:15.328Z,99.90
2023-03-29T05:32:52.871Z,99.90
2023-03-29T05:35:26.225Z,99.90
2023-03-29T05:37:56.322Z,99.90
2023-03-29T05:40:26.214Z,99.90
2023-03-29T05:43:12.608Z,99.90
2023-03-29T05:45:39.704Z,99.90
2023-03-29T05:48:07.196Z,99.90
2023-03-29T05:50:36.862Z,99.90
2023-03-29T05:53:05.463Z,99.90
2023-03-29T05:55:33.595Z,99.90
2023-03-29T05:58:01.150Z,99.90
2023-03-29T06:00:34.302Z,99.90
2023-03-29T06:03:21.510Z,99.90
2023-03-29T06:05:56.742Z,99.90
2023-03-29T06:08:24.484Z,99.90
2023-03-29T06:11:17.646Z,99.90
2023-03-29T06:14:04.613Z,99.90
2023-03-29T06:16:33.389Z,99.90
2023-03-29T06:19:01.721Z,99.90
2023-03-29T06:21:31.593Z,99.90
2023-03-29T06:23:59.659Z,99.90
2023-03-29T06:26:30.193Z,99.90
2023-03-29T06:28:58.274Z,99.90
2023-03-29T06:31:25.894Z,99.90
2023-03-29T06:33:53.581Z,99.90
2023-03-29T06:36:46.936Z,99.90
2023-03-29T06:39:15.632Z,99.90
2023-03-29T06:42:20.063Z,99.90
2023-03-29T06:45:07.741Z,99.90
2023-03-29T06:47:38.850Z,99.90
2023-03-29T06:50:07.124Z,99.90
2023-03-29T06:52:45.192Z,99.90
2023-03-29T06:55:14.327Z,99.90
2023-03-29T06:57:42.617Z,99.90
2023-03-29T07:00:19.220Z,99.90
2023-03-29T07:03:09.904Z,99.90
2023-03-29T07:05:40.804Z,99.90
2023-03-29T07:08:09.933Z,99.90
2023-03-29T07:11:14.270Z,99.90
2023-03-29T07:13:52.312Z,99.90
2023-03-29T07:16:21.419Z,99.90
2023-03-29T07:19:09.242Z,99.90
2023-03-29T07:22:04.631Z,99.90
2023-03-29T07:24:41.844Z,99.90
2023-03-29T07:27:09.788Z,99.90
2023-03-29T07:29:37.212Z,99.90
2023-03-29T07:32:04.823Z,99.90
2023-03-29T07:34:51.528Z,99.90
2023-03-29T07:37:27.513Z,99.90
2023-03-29T07:39:56.767Z,99.90
2023-03-29T07:42:39.703Z,99.90
2023-03-29T07:45:11.376Z,99.90
2023-03-29T07:47:56.109Z,99.90
2023-03-29T07:50:23.563Z,99.90
2023-03-29T07:52:54.279Z,99.90
2023-03-29T07:55:22.165Z,99.90
2023-03-29T07:57:56.365Z,99.90
2023-03-29T08:00:25.006Z,99.90
2023-03-29T08:03:16.137Z,99.90
2023-03-29T08:05:43.672Z,99.90
2023-03-29T08:08:14.267Z,99.90
2023-03-29T08:11:04.591Z,99.90
2023-03-29T08:13:44.238Z,99.90
2023-03-29T08:16:26.689Z,99.90
2023-03-29T08:19:05.234Z,99.90
2023-03-29T08:22:01.620Z,97.20
2023-03-29T08:24:38.095Z,96.50
2023-03-29T08:27:07.479Z,94.60
2023-03-29T08:29:35.401Z,91.70
2023-03-29T08:32:02.922Z,92.80
2023-03-29T08:34:31.785Z,91.50
2023-03-29T08:37:05.114Z,91.90
2023-03-29T08:39:41.248Z,93.00
2023-03-29T08:42:34.385Z,92.20
2023-03-29T08:45:39.410Z,90.70
2023-03-29T08:48:20.880Z,87.10
2023-03-29T08:50:54.618Z,84.30
2023-03-29T08:53:32.819Z,82.10
2023-03-29T08:56:23.075Z,79.90
2023-03-29T08:58:52.360Z,83.90
2023-03-29T09:01:22.729Z,82.50
2023-03-29T09:04:06.476Z,78.70
2023-03-29T09:06:48.984Z,74.70
2023-03-29T09:09:27.847Z,73.00
2023-03-29T09:12:23.831Z,74.10
2023-03-29T09:14:52.387Z,69.10
2023-03-29T09:17:55.685Z,67.90
2023-03-29T09:21:00.844Z,70.00
2023-03-29T09:23:57.037Z,64.60
2023-03-29T09:26:47.725Z,64.40
2023-03-29T09:29:49.257Z,65.60
2023-03-29T09:32:31.374Z,60.00
2023-03-29T09:35:23.150Z,61.80
2023-03-29T09:37:54.115Z,58.70
2023-03-29T09:40:34.215Z,57.20
2023-03-29T09:43:15.008Z,58.00
2023-03-29T09:45:43.775Z,58.60
2023-03-29T09:48:16.882Z,58.40
2023-03-29T09:50:51.481Z,58.20
2023-03-29T09:53:21.521Z,58.50
2023-03-29T09:56:02.716Z,56.40
2023-03-29T09:58:50.266Z,57.50
2023-03-29T10:01:19.834Z,55.90
2023-03-29T10:03:53.933Z,57.00
2023-03-29T10:06:25.655Z,58.20
2023-03-29T10:08:59.726Z,58.30
2023-03-29T10:11:37.072Z,57.30
2023-03-29T10:14:13.899Z,57.40
2023-03-29T10:16:46.633Z,57.70
2023-03-29T10:19:34.371Z,58.80
2023-03-29T10:22:07.755Z,59.10
2023-03-29T10:24:34.978Z,59.50
2023-03-29T10:27:09.770Z,59.60
2023-03-29T10:29:41.176Z,59.80
2023-03-29T10:32:35.685Z,59.60
2023-03-29T10:35:24.982Z,56.00
2023-03-29T10:37:55.771Z,57.60
2023-03-29T10:40:41.405Z,57.30
2023-03-29T10:43:41.894Z,58.40
2023-03-29T10:46:19.803Z,59.10
2023-03-29T10:48:50.257Z,57.30
2023-03-29T10:51:19.223Z,58.70
2023-03-29T10:53:47.657Z,58.30
2023-03-29T10:56:24.483Z,57.70
2023-03-29T10:59:17.290Z,54.50
2023-03-29T11:02:18.923Z,57.30
2023-03-29T11:05:00.291Z,53.60
2023-03-29T11:08:16.223Z,50.70
2023-03-29T11:11:10.527Z,51.30
2023-03-29T11:14:04.886Z,52.00
2023-03-29T11:16:37.055Z,52.40
2023-03-29T11:19:18.754Z,52.70
2023-03-29T11:21:46.019Z,53.40
2023-03-29T11:24:36.450Z,54.40
2023-03-29T11:27:03.911Z,53.90
2023-03-29T11:30:25.169Z,54.20
2023-03-29T11:33:02.854Z,53.60
2023-03-29T11:35:54.132Z,52.90
2023-03-29T11:38:33.594Z,53.10
2023-03-29T11:41:18.791Z,52.80
2023-03-29T11:44:20.393Z,53.20
2023-03-29T11:47:03.747Z,53.60
2023-03-29T11:49:43.858Z,53.30
2023-03-29T11:52:17.605Z,52.50
2023-03-29T11:55:19.304Z,52.50
2023-03-29T11:58:05.888Z,51.60
2023-03-29T12:00:52.803Z,51.20
2023-03-29T12:03:43.112Z,50.10
2023-03-29T12:06:17.865Z,50.60
2023-03-29T12:08:52.678Z,51.60
2023-03-29T12:11:43.181Z,51.20
2023-03-29T12:14:18.041Z,50.10
2023-03-29T12:16:52.238Z,50.50
2023-03-29T12:19:41.792Z,51.10
2023-03-29T12:22:11.407Z,51.00
2023-03-29T12:24:46.323Z,50.50
2023-03-29T12:27:34.195Z,50.60
2023-03-29T12:30:28.383Z,51.20
2023-03-29T12:33:13.684Z,52.50
2023-03-29T12:36:16.527Z,52.00
2023-03-29T12:39:03.652Z,51.00
2023-03-29T12:41:51.763Z,52.10
2023-03-29T12:44:37.518Z,52.10
2023-03-29T12:47:42.491Z,50.60
2023-03-29T12:50:25.560Z,51.20
2023-03-29T12:52:53.144Z,50.90
2023-03-29T12:55:42.926Z,52.00
2023-03-29T12:58:24.814Z,53.50
2023-03-29T13:01:22.485Z,53.00
2023-03-29T13:03:52.728Z,53.20
2023-03-29T13:06:56.400Z,52.30
2023-03-29T13:09:25.259Z,51.90
2023-03-29T13:11:54.775Z,50.30
2023-03-29T13:14:26.344Z,51.10
2023-03-29T13:16:54.168Z,49.10
2023-03-29T13:19:50.699Z,49.30
2023-03-29T13:22:26.312Z,47.50
2023-03-29T13:25:10.618Z,49.10
2023-03-29T13:28:01.308Z,48.40
2023-03-29T13:30:47.059Z,47.80
2023-03-29T13:33:37.093Z,48.10
2023-03-29T13:36:29.350Z,44.80
2023-03-29T13:39:05.532Z,44.70
2023-03-29T13:41:44.512Z,44.60
2023-03-29T13:44:26.064Z,45.10
2023-03-29T13:47:05.328Z,42.00
2023-03-29T13:49:34.500Z,43.40
2023-03-29T13:52:26.432Z,42.80
2023-03-29T13:55:03.110Z,41.60
2023-03-29T13:57:42.397Z,42.20
2023-03-29T14:00:18.221Z,41.70
2023-03-29T14:03:05.296Z,40.00
2023-03-29T14:05:39.853Z,39.80
2023-03-29T14:08:37.429Z,40.90
2023-03-29T14:11:07.027Z,40.70
2023-03-29T14:13:34.955Z,41.20
2023-03-29T14:16:05.247Z,40.70
2023-03-29T14:18:36.763Z,39.10
2023-03-29T14:21:04.403Z,39.80
2023-03-29T14:23:37.446Z,39.80
2023-03-29T14:26:17.362Z,40.80
2023-03-29T14:28:48.421Z,40.80
2023-03-29T14:31:23.765Z,41.10
2023-03-29T14:33:56.058Z,41.40
2023-03-29T14:36:25.163Z,41.10
2023-03-29T14:39:05.415Z,41.70
2023-03-29T14:41:36.756Z,41.70
2023-03-29T14:44:06.737Z,40.80
2023-03-29T14:46:35.416Z,41.50
2023-03-29T14:49:02.836Z,41.30
2023-03-29T14:51:31.214Z,41.90
2023-03-29T14:54:00.302Z,42.50
2023-03-29T14:56:29.138Z,41.40
2023-03-29T14:58:57.436Z,41.40
2023-03-29T15:01:26.829Z,41.60
2023-03-29T15:04:07.511Z,41.10
2023-03-29T15:06:42.470Z,41.10
2023-03-29T15:09:21.211Z,41.20
2023-03-29T15:11:53.979Z,42.20
2023-03-29T15:14:23.545Z,43.20
2023-03-29T15:16:53.406Z,44.20
2023-03-29T15:19:22.597Z,44.70
2023-03-29T15:21:51.480Z,45.00
2023-03-29T15:24:33.028Z,45.00
2023-03-29T15:27:18.174Z,44.80
2023-03-29T15:29:47.367Z,43.90
2023-03-29T15:32:23.508Z,44.10
2023-03-29T15:35:01.518Z,43.10
2023-03-29T15:37:29.098Z,44.40
2023-03-29T15:39:56.768Z,44.50
2023-03-29T15:42:25.098Z,45.10
2023-03-29T15:44:56.330Z,46.00
2023-03-29T15:47:24.090Z,44.70
2023-03-29T15:49:51.671Z,44.30
2023-03-29T15:52:19.037Z,44.40
2023-03-29T15:54:46.307Z,45.00
2023-03-29T15:57:15.692Z,44.70
2023-03-29T15:59:43.867Z,44.80
2023-03-29T16:02:16.283Z,43.90
2023-03-29T16:04:43.640Z,44.10
2023-03-29T16:07:14.966Z,44.50
2023-03-29T16:09:42.732Z,44.40
2023-03-29T16:12:11.057Z,44.30
2023-03-29T16:14:38.637Z,44.30
2023-03-29T16:17:06.681Z,43.70
2023-03-29T16:19:34.456Z,43.70
2023-03-29T16:22:07.056Z,43.90
2023-03-29T16:24:35.572Z,44.20
2023-03-29T16:27:03.801Z,44.50
2023-03-29T16:29:31.197Z,44.60
2023-03-29T16:31:59.201Z,45.10
2023-03-29T16:34:26.824Z,45.60
2023-03-29T16:36:54.453Z,45.90
2023-03-29T16:39:21.576Z,46.20
2023-03-29T16:41:50.281Z,46.40
2023-03-29T16:44:22.456Z,46.70
2023-03-29T16:46:54.210Z,46.60
2023-03-29T16:49:21.700Z,47.00
2023-03-29T16:51:49.156Z,47.20
2023-03-29T16:54:19.709Z,48.10
2023-03-29T16:56:47.342Z,47.80
2023-03-29T16:59:15.353Z,48.00
2023-03-29T17:01:43.109Z,48.30
2023-03-29T17:04:10.577Z,48.60
2023-03-29T17:06:38.051Z,48.90
2023-03-29T17:09:06.069Z,49.00
2023-03-29T17:11:34.531Z,49.10
2023-03-29T17:14:01.789Z,49.50
2023-03-29T17:16:29.464Z,49.60
2023-03-29T17:19:00.507Z,49.70
2023-03-29T17:21:29.300Z,50.10
2023-03-29T17:24:00.350Z,50.40
2023-03-29T17:26:28.509Z,51.20
2023-03-29T17:28:55.720Z,50.70
2023-03-29T17:31:23.185Z,50.80
2023-03-29T17:33:52.096Z,51.20
2023-03-29T17:36:24.009Z,52.10
2023-03-29T17:38:51.643Z,51.70
2023-03-29T17:41:19.283Z,51.70
2023-03-29T17:43:47.849Z,52.10
2023-03-29T17:46:16.977Z,52.10
2023-03-29T17:48:43.990Z,52.20
2023-03-29T17:51:11.321Z,52.20
2023-03-29T17:53:38.337Z,52.50
2023-03-29T17:56:06.580Z,52.80
2023-03-29T17:58:33.598Z,52.80
2023-03-29T18:01:08.333Z,53.00
2023-03-29T18:03:35.630Z,53.00
2023-03-29T18:06:03.953Z,53.30
2023-03-29T18:08:32.658Z,53.20
2023-03-29T18:11:11.832Z,53.30
2023-03-29T18:13:39.920Z,53.50
2023-03-29T18:16:09.453Z,53.50
2023-03-29T18:18:37.472Z,53.60
2023-03-29T18:21:06.940Z,54.00
2023-03-29T18:23:34.170Z,54.00
2023-03-29T18:26:03.579Z,54.30
2023-03-29T18:28:31.201Z,54.50
2023-03-29T18:30:58.644Z,54.70
2023-03-29T18:33:26.026Z,54.60
2023-03-29T18:35:53.489Z,55.20
2023-03-29T18:38:22.584Z,54.80
2023-03-29T18:40:50.307Z,55.10
2023-03-29T18:43:17.891Z,55.10
2023-03-29T18:45:45.451Z,55.50
2023-03-29T18:48:13.027Z,55.80
2023-03-29T18:50:45.058Z,55.90
2023-03-29T18:53:15.981Z,56.20
2023-03-29T18:55:43.949Z,55.80
2023-03-29T18:58:12.585Z,55.90
2023-03-29T19:00:41.163Z,56.10
2023-03-29T19:03:08.857Z,56.40
2023-03-29T19:05:39.970Z,56.30
2023-03-29T19:08:09.148Z,56.60
2023-03-29T19:10:37.750Z,56.70
2023-03-29T19:13:05.609Z,56.50
2023-03-29T19:15:34.654Z,56.50
2023-03-29T19:18:02.045Z,56.50
2023-03-29T19:20:29.967Z,56.70
2023-03-29T19:22:56.998Z,56.80
2023-03-29T19:25:24.510Z,56.80
2023-03-29T19:27:51.583Z,56.80
2023-03-29T19:30:23.170Z,56.90
2023-03-29T19:32:51.545Z,57.10
2023-03-29T19:35:20.101Z,57.30
2023-03-29T19:37:47.217Z,57.30
2023-03-29T19:40:15.354Z,57.30
2023-03-29T19:42:42.996Z,57.30
2023-03-29T19:45:10.777Z,57.40
2023-03-29T19:47:37.866Z,57.40
2023-03-29T19:50:06.179Z,57.50
2023-03-29T19:52:33.951Z,57.50
2023-03-29T19:55:01.432Z,57.70
2023-03-29T19:57:28.630Z,57.80
2023-03-29T19:59:55.924Z,57.90
2023-03-29T20:02:23.117Z,57.90
2023-03-29T20:04:50.843Z,58.10
2023-03-29T20:07:17.833Z,58.20
2023-03-29T20:09:45.974Z,58.30
2023-03-29T20:12:13.042Z,58.50
2023-03-29T20:14:40.514Z,58.50
2023-03-29T20:17:08.046Z,58.70
2023-03-29T20:19:36.733Z,59.20
2023-03-29T20:22:04.432Z,58.80
2023-03-29T20:24:32.638Z,58.90
2023-03-29T20:26:59.884Z,59.00
2023-03-29T20:29:27.703Z,59.20
2023-03-29T20:31:54.830Z,59.40
2023-03-29T20:34:22.458Z,59.40
2023-03-29T20:36:49.830Z,59.70
2023-03-29T20:39:18.743Z,59.60
2023-03-29T20:41:47.812Z,59.60
2023-03-29T20:44:18.575Z,59.70
2023-03-29T20:46:54.297Z,59.70
2023-03-29T20:49:26.478Z,59.80
2023-03-29T20:51:58.515Z,59.90
2023-03-29T20:54:26.534Z,60.00
2023-03-29T20:56:54.881Z,60.00
2023-03-29T20:59:22.905Z,60.20
2023-03-29T21:01:50.397Z,60.20
2023-03-29T21:04:18.287Z,60.90
2023-03-29T21:06:45.738Z,60.40
2023-03-29T21:09:13.705Z,60.40
2023-03-29T21:11:40.932Z,60.50
2023-03-29T21:14:09.436Z,60.70
2023-03-29T21:16:36.566Z,60.70
2023-03-29T21:19:03.941Z,60.90
2023-03-29T21:21:30.947Z,61.00
2023-03-29T21:23:58.264Z,61.10
2023-03-29T21:26:26.108Z,61.30
2023-03-29T21:28:53.662Z,61.40
2023-03-29T21:31:21.044Z,61.50
2023-03-29T21:33:48.422Z,61.60
2023-03-29T21:36:15.438Z,61.80
2023-03-29T21:38:42.774Z,61.90
2023-03-29T21:41:12.065Z,62.10
2023-03-29T21:43:39.789Z,62.20
2023-03-29T21:46:07.385Z,62.10
2023-03-29T21:48:35.229Z,62.20
2023-03-29T21:51:02.883Z,62.10
2023-03-29T21:53:30.612Z,62.20
2023-03-29T21:55:57.739Z,62.10
2023-03-29T21:58:25.287Z,62.10
2023-03-29T22:00:52.579Z,62.30
2023-03-29T22:03:19.935Z,62.00
2023-03-29T22:06:01.325Z,61.90
2023-03-29T22:08:29.658Z,62.30
2023-03-29T22:10:57.719Z,62.00
2023-03-29T22:13:27.595Z,62.10
2023-03-29T22:15:59.071Z,62.10
2023-03-29T22:18:42.163Z,61.90
2023-03-29T22:21:15.223Z,62.00
2023-03-29T22:23:44.444Z,62.10
2023-03-29T22:26:13.264Z,62.10
2023-03-29T22:28:41.754Z,62.00
2023-03-29T22:31:11.716Z,62.30
2023-03-29T22:33:40.243Z,62.10
2023-03-29T22:36:23.837Z,62.20
2023-03-29T22:38:51.592Z,62.20
2023-03-29T22:41:20.285Z,62.20
2023-03-29T22:43:47.631Z,62.30
2023-03-29T22:46:16.248Z,62.60
2023-03-29T22:48:43.750Z,62.40
2023-03-29T22:51:11.460Z,62.50
2023-03-29T22:53:39.188Z,62.60
2023-03-29T22:56:07.820Z,62.60
2023-03-29T22:58:36.884Z,62.90
2023-03-29T23:01:04.820Z,62.90
2023-03-29T23:03:32.974Z,62.90
2023-03-29T23:06:03.367Z,63.00
2023-03-29T23:08:32.571Z,63.10
2023-03-29T23:11:00.608Z,63.30
2023-03-29T23:13:29.397Z,63.40
2023-03-29T23:15:59.923Z,63.50
2023-03-29T23:18:29.626Z,64.20
2023-03-29T23:20:57.964Z,63.60
2023-03-29T23:23:27.056Z,63.90
2023-03-29T23:25:55.783Z,64.60
2023-03-29T23:28:27.345Z,64.30
2023-03-29T23:31:09.857Z,64.20
2023-03-29T23:33:41.131Z,64.40
2023-03-29T23:36:16.976Z,64.40
2023-03-29T23:38:46.129Z,64.60
2023-03-29T23:41:13.724Z,64.80
2023-03-29T23:43:43.281Z,65.00
2023-03-29T23:46:16.063Z,65.10
2023-03-29T23:48:49.095Z,65.40
2023-03-29T23:51:28.826Z,65.50
2023-03-29T23:53:56.897Z,65.60
2023-03-29T23:56:24.363Z,65.80
2023-03-29T23:58:51.922Z,66.10
